Time;durP1;ratioP1;P1;durP2;ratioP2;P2;SDS_P1;SDS_P2;PMS_P1;PMS_P2;Temp;Humidity;BMP_temperature;BMP_pressure;BME280_temperature;BME280_humidity;BME280_pressure;Samples;Min_cycle;Max_cycle;Signal;HPM_P1;HPM_P2
2021/11/09 00:05:58;;;;;;;23.50;12.02;;;;;;;2.85;95.41;101399.88;20987177;28;20056;-72
2021/11/09 00:16:00;;;;;;;26.63;12.23;;;;;;;2.73;95.31;101404.63;20986617;28;20052;-73
2021/11/09 00:26:02;;;;;;;27.42;12.85;;;;;;;2.65;95.34;101399.22;20984456;28;20052;-72
2021/11/09 00:36:04;;;;;;;41.15;19.60;;;;;;;2.69;95.70;101403.69;20983005;28;20052;-72
2021/11/09 00:46:05;;;;;;;33.83;13.38;;;;;;;2.66;95.12;101420.78;20984869;28;20056;-72
2021/11/09 00:56:08;;;;;;;26.65;12.90;;;;;;;2.64;94.81;101420.75;20983640;28;20119;-77
2021/11/09 01:06:09;;;;;;;26.55;12.27;;;;;;;2.60;94.87;101418.88;20983195;28;20036;-71
2021/11/09 01:16:11;;;;;;;28.20;14.10;;;;;;;2.64;94.07;101414.72;20983379;28;20055;-72
2021/11/09 01:26:14;;;;;;;26.77;13.23;;;;;;;2.58;94.36;101412.78;20981434;28;20118;-76
2021/11/09 01:36:16;;;;;;;50.42;20.80;;;;;;;2.60;94.99;101408.56;20981453;28;20136;-73
2021/11/09 01:46:18;;;;;;;145.68;54.65;;;;;;;2.58;95.85;101412.78;20982102;28;20079;-72
2021/11/09 01:56:26;;;;;;;31.77;15.23;;;;;;;2.51;95.58;101411.69;20981715;28;20505;-74
2021/11/09 02:06:29;;;;;;;32.83;13.38;;;;;;;2.50;96.08;101424.59;20989993;28;20127;-73
2021/11/09 02:16:31;;;;;;;24.67;12.65;;;;;;;2.42;95.94;101421.72;20996183;28;20173;-73
2021/11/09 02:26:33;;;;;;;32.10;13.25;;;;;;;2.39;95.27;101424.19;20994843;28;20053;-73
2021/11/09 02:36:34;;;;;;;42.80;16.45;;;;;;;2.34;95.24;101435.22;20994227;28;20406;-71
2021/11/09 02:46:51;;;;;;;28.75;14.20;;;;;;;2.16;97.10;101445.81;20994479;28;20049;-73
2021/11/09 02:57:05;;;;;;;36.85;15.27;;;;;;;2.09;97.14;101447.28;20993746;28;20048;-74
2021/11/09 03:07:22;;;;;;;31.80;13.60;;;;;;;2.07;97.49;101450.66;20992468;28;20110;-73
2021/11/09 03:17:24;;;;;;;41.40;14.63;;;;;;;1.92;97.57;101445.81;20990284;28;20122;-72
2021/11/09 03:48:11;;;;;;;35.53;15.07;;;;;;;1.65;97.71;101445.69;20989515;28;20118;-71
2021/11/09 03:58:21;;;;;;;39.80;15.55;;;;;;;1.53;97.52;101447.00;20988730;28;20390;-72
2021/11/09 04:39:33;;;;;;;33.88;14.38;;;;;;;1.14;96.81;101456.63;20984172;28;20113;-71
2021/11/09 05:10:00;;;;;;;26.55;14.32;;;;;;;0.99;96.70;101456.91;20981879;28;20075;-71
2021/11/09 05:20:03;;;;;;;27.98;13.25;;;;;;;1.02;96.63;101461.31;20981954;28;20048;-73
2021/11/09 05:30:05;;;;;;;31.02;13.23;;;;;;;1.04;97.68;101464.84;20980927;28;20048;-72
2021/11/09 05:40:08;;;;;;;31.17;13.38;;;;;;;1.20;98.71;101482.69;20990574;28;20049;-73
2021/11/09 05:50:10;;;;;;;29.17;13.25;;;;;;;1.20;98.74;101498.19;20997281;28;20044;-72
2021/11/09 06:00:13;;;;;;;38.10;14.38;;;;;;;1.24;99.05;101504.31;20998342;28;20382;-74
2021/11/09 06:10:15;;;;;;;26.50;13.25;;;;;;;1.25;98.87;101506.97;20996211;28;20044;-72
2021/11/09 06:20:16;;;;;;;32.50;15.05;;;;;;;1.25;98.64;101532.78;20996462;28;20053;-73
2021/11/09 06:30:19;;;;;;;33.85;14.48;;;;;;;1.22;98.64;101542.06;20994289;28;20386;-71
2021/11/09 06:40:22;;;;;;;36.20;16.10;;;;;;;1.24;99.01;101551.63;20995150;28;20056;-72
2021/11/09 06:50:24;;;;;;;34.58;17.30;;;;;;;1.33;99.43;101563.16;20992692;28;20048;-72
2021/11/09 07:00:25;;;;;;;37.63;17.42;;;;;;;1.35;99.37;101569.25;20991811;28;20094;-71
2021/11/09 07:10:27;;;;;;;38.75;19.38;;;;;;;1.47;99.74;101572.31;20993057;28;20102;-73
2021/11/09 07:20:29;;;;;;;36.97;18.02;;;;;;;1.63;99.82;101577.28;20992720;28;20122;-72
2021/11/09 07:30:41;;;;;;;34.65;17.90;;;;;;;1.75;99.50;101582.91;20989071;28;20113;-71
2021/11/09 07:40:46;;;;;;;37.00;18.55;;;;;;;1.98;99.83;101595.84;20991265;28;20048;-72
2021/11/09 07:50:48;;;;;;;41.35;19.73;;;;;;;2.28;99.66;101602.16;20990335;28;20386;-72
2021/11/09 08:00:55;;;;;;;47.72;21.00;;;;;;;2.66;99.23;101597.50;20987934;28;20040;-72
2021/11/09 08:10:57;;;;;;;40.65;20.83;;;;;;;3.03;98.72;101603.97;20952174;28;20044;-71
2021/11/09 08:20:59;;;;;;;45.55;19.92;;;;;;;3.37;97.46;101602.50;20937745;28;20114;-71
2021/11/09 08:31:08;;;;;;;42.80;19.55;;;;;;;3.80;97.28;101594.38;20934634;28;20045;-71
2021/11/09 08:41:12;;;;;;;41.90;19.35;;;;;;;4.13;96.43;101586.75;20933508;28;20126;-71
2021/11/09 08:51:14;;;;;;;31.40;16.42;;;;;;;4.55;94.18;101583.59;20977981;28;20089;-71
2021/11/09 09:01:41;;;;;;;28.73;14.82;;;;;;;4.93;94.01;101571.66;20976354;28;20048;-72
2021/11/09 09:11:41;;;;;;;23.17;8.80;;;;;;;5.21;90.88;101574.97;20960193;28;20048;-70
2021/11/09 09:53:24;;;;;;;15.85;7.40;;;;;;;6.30;85.14;101576.63;20891069;28;20103;-70
2021/11/09 10:03:13;;;;;;;17.70;7.50;;;;;;;6.38;84.07;101561.19;20890199;28;20402;-70
2021/11/09 10:13:20;;;;;;;15.02;7.13;;;;;;;6.79;81.97;101546.34;20920435;28;20105;-71
2021/11/09 10:23:29;;;;;;;15.88;7.20;;;;;;;7.23;80.78;101534.94;20976280;28;20621;-70
2021/11/09 10:33:37;;;;;;;18.85;6.00;;;;;;;7.45;78.84;101537.91;20987387;28;20040;-71
2021/11/09 10:43:39;;;;;;;12.45;5.43;;;;;;;7.74;73.83;101524.44;20988272;28;20114;-71
2021/11/09 10:53:46;;;;;;;12.07;5.45;;;;;;;7.85;75.69;101508.94;20986429;28;20044;-70
2021/11/09 11:14:05;;;;;;;11.77;4.38;;;;;;;8.56;69.78;101481.97;20949500;28;20118;-70
2021/11/09 11:24:13;;;;;;;9.18;3.90;;;;;;;8.82;67.00;101456.97;20901626;28;20057;-72
2021/11/09 11:34:16;;;;;;;17.23;4.45;;;;;;;8.87;67.39;101460.50;20900875;28;20106;-70
2021/11/09 11:44:53;;;;;;;10.02;3.50;;;;;;;8.72;66.48;101447.31;20900344;28;20049;-71
2021/11/09 11:54:59;;;;;;;10.63;3.50;;;;;;;8.94;65.55;101444.00;20899993;28;20056;-72
2021/11/09 12:05:01;;;;;;;11.45;3.45;;;;;;;9.02;65.19;101431.00;20897989;28;20513;-71
2021/11/09 12:15:08;;;;;;;11.77;3.30;;;;;;;9.51;61.73;101420.84;20942268;28;20542;-70
2021/11/09 12:25:21;;;;;;;10.75;3.78;;;;;;;9.70;61.25;101414.84;20979249;28;20078;-71
2021/11/09 12:35:25;;;;;;;10.48;3.45;;;;;;;9.49;62.34;101399.94;20977863;28;20094;-71
2021/11/09 12:45:29;;;;;;;11.67;3.50;;;;;;;9.38;64.68;101404.22;20977541;28;20139;-72
2021/11/09 12:55:31;;;;;;;9.10;3.10;;;;;;;9.69;61.99;101399.16;20977759;28;20439;-72
2021/11/09 13:05:52;;;;;;;8.98;3.53;;;;;;;9.75;59.82;101386.94;20971755;28;20123;-72
2021/11/09 13:15:54;;;;;;;9.45;3.03;;;;;;;9.95;59.49;101375.69;20923575;28;20049;-71
2021/11/09 13:25:58;;;;;;;7.28;3.60;;;;;;;10.00;58.22;101369.56;20892590;28;20048;-72
2021/11/09 13:36:00;;;;;;;10.55;3.50;;;;;;;9.72;60.79;101367.75;20892374;28;20132;-72
2021/11/09 13:46:11;;;;;;;12.15;3.17;;;;;;;9.80;60.90;101368.66;20891773;28;20107;-71
2021/11/09 13:56:19;;;;;;;11.20;3.58;;;;;;;9.92;61.17;101360.88;20892562;28;20049;-71
2021/11/09 14:16:38;;;;;;;8.23;2.80;;;;;;;10.12;59.63;101357.41;20912930;28;20106;-70
2021/11/09 14:26:42;;;;;;;10.52;3.40;;;;;;;9.89;60.35;101344.28;20905450;28;20052;-69
2021/11/09 14:36:47;;;;;;;9.48;3.20;;;;;;;10.05;60.37;101319.00;20905744;28;20041;-70
2021/11/09 14:46:49;;;;;;;9.35;2.97;;;;;;;10.03;59.73;101300.69;20904624;28;20098;-69
2021/11/09 14:56:51;;;;;;;14.93;2.88;;;;;;;9.98;59.98;101308.53;20903915;28;20056;-68
2021/11/09 15:27:29;;;;;;;8.68;3.22;;;;;;;9.42;60.94;101311.88;20926661;28;20502;-69
2021/11/09 15:37:38;;;;;;;9.77;2.85;;;;;;;9.24;61.58;101306.56;20930352;28;20106;-68
2021/11/09 15:47:40;;;;;;;12.70;4.80;;;;;;;8.97;62.23;101295.16;20935364;28;20049;-67
2021/11/09 15:57:43;;;;;;;11.27;4.28;;;;;;;8.67;64.03;101308.91;20944307;28;20040;-68
2021/11/09 16:07:45;;;;;;;10.65;3.40;;;;;;;8.42;65.44;101304.34;20980132;28;20048;-67
2021/11/09 16:17:46;;;;;;;10.48;5.10;;;;;;;8.17;66.09;101311.94;20911447;28;20045;-67
2021/11/09 16:27:49;;;;;;;8.02;2.92;;;;;;;7.91;67.92;101300.44;20894785;28;20509;-67
2021/11/09 16:37:52;;;;;;;8.45;3.20;;;;;;;7.70;68.22;101316.72;20895408;28;20053;-68
2021/11/09 16:47:58;;;;;;;8.02;3.78;;;;;;;7.59;68.68;101327.03;20895330;28;20055;-68
2021/11/09 16:58:18;;;;;;;10.13;2.95;;;;;;;7.54;68.29;101320.88;20893068;28;20053;-68
2021/11/09 18:21:06;;;;;;;11.10;5.20;;;;;;;5.94;76.27;101340.22;20891098;28;20106;-67
2021/11/09 18:31:08;;;;;;;9.05;5.00;;;;;;;5.43;80.69;101372.09;20890727;28;20095;-67
2021/11/09 18:41:10;;;;;;;14.88;8.45;;;;;;;5.06;81.56;101380.78;20890519;28;22007;-67
2021/11/09 18:51:11;;;;;;;23.45;11.88;;;;;;;5.12;80.83;101358.44;20902597;28;20099;-67
2021/11/09 19:01:13;;;;;;;22.90;11.18;;;;;;;5.14;79.98;101364.53;20903126;28;20045;-67
2021/11/09 19:11:15;;;;;;;21.45;12.80;;;;;;;4.80;82.59;101362.91;20915665;28;20056;-67
2021/11/09 19:21:16;;;;;;;14.82;7.75;;;;;;;4.63;83.38;101343.47;20975542;28;20118;-67
2021/11/09 19:31:18;;;;;;;16.27;6.75;;;;;;;4.34;85.07;101371.28;20983931;28;20060;-67
2021/11/09 19:41:19;;;;;;;19.77;10.30;;;;;;;4.03;86.18;101351.50;20983262;28;20056;-67
2021/11/09 19:51:21;;;;;;;22.38;11.40;;;;;;;3.96;87.18;101386.72;20982238;28;20110;-67
2021/11/09 20:01:23;;;;;;;22.38;11.52;;;;;;;3.88;86.09;101359.75;20980855;28;20493;-67
2021/11/09 20:11:26;;;;;;;36.67;18.73;;;;;;;4.10;85.25;101337.84;20979512;28;20052;-67
2021/11/09 20:21:28;;;;;;;21.05;8.93;;;;;;;3.87;85.61;101339.84;20980342;28;20048;-67
2021/11/09 20:31:29;;;;;;;18.60;9.75;;;;;;;3.86;85.60;101344.16;20978606;28;20044;-67
2021/11/09 20:41:31;;;;;;;24.10;11.68;;;;;;;3.91;85.85;101353.75;20977660;28;20056;-67
2021/11/09 20:51:35;;;;;;;25.10;13.18;;;;;;;3.88;86.43;101353.66;20977241;28;20048;-67
2021/11/09 21:01:36;;;;;;;20.30;9.87;;;;;;;3.83;86.08;101338.91;20976597;28;20040;-67
2021/11/09 21:11:38;;;;;;;22.05;13.25;;;;;;;3.75;85.82;101352.47;20959172;28;20106;-67
2021/11/09 21:21:40;;;;;;;24.75;12.68;;;;;;;3.46;87.26;101333.56;20892780;28;20075;-67
2021/11/09 21:42:16;;;;;;;20.35;12.00;;;;;;;3.20;88.63;101369.88;20837482;28;20076;-69
2021/11/09 21:52:17;;;;;;;21.77;12.10;;;;;;;3.02;89.77;101365.06;20892702;28;20465;-69
2021/11/09 22:02:19;;;;;;;25.33;10.73;;;;;;;2.86;90.44;101369.69;20892136;28;20110;-69
2021/11/09 22:12:21;;;;;;;20.52;10.82;;;;;;;2.80;89.82;101366.09;20913507;28;20044;-69
2021/11/09 22:22:22;;;;;;;20.00;10.45;;;;;;;2.76;90.76;101364.25;20981320;28;20044;-69
2021/11/09 22:32:24;;;;;;;20.25;10.18;;;;;;;2.73;90.67;101365.84;20986423;28;20045;-69
2021/11/09 22:42:25;;;;;;;17.23;9.77;;;;;;;2.73;91.26;101359.00;20986969;28;20056;-70
2021/11/09 22:52:27;;;;;;;19.92;10.25;;;;;;;2.65;90.99;101360.44;20987578;28;20075;-70
2021/11/09 23:02:28;;;;;;;18.83;9.95;;;;;;;2.62;91.47;101343.94;20986120;28;20052;-69
2021/11/09 23:12:30;;;;;;;24.08;11.23;;;;;;;2.74;91.12;101354.69;20993644;28;20109;-69
2021/11/09 23:22:32;;;;;;;23.13;10.98;;;;;;;2.66;91.16;101354.44;20992828;28;20052;-70
2021/11/09 23:32:34;;;;;;;20.58;10.05;;;;;;;2.41;90.96;101342.44;20991587;28;20045;-69
2021/11/09 23:42:36;;;;;;;22.77;10.52;;;;;;;2.30;91.19;101338.66;20991038;28;20057;-70
2021/11/09 23:52:38;;;;;;;22.75;10.38;;;;;;;2.36;91.02;101350.88;20990510;28;20119;-70
